Time,TemperatureF,DewpointF,PressureIn,WindDirection,WindDirectionDegrees,WindSpeedMPH,WindSpeedGustMPH,Humidity,HourlyPrecipIn,Conditions,Clouds,dailyrainin,SoftwareType,DateUTC
2013-09-15 00:00:00,64.6,55.0,30.00,South,169,4.0,5.0,71,0.00,,,0.00,Wunderground v.1.15,2013-09-15 07:00:00,
2013-09-15 00:10:00,64.4,55.2,30.00,SSW,193,4.0,4.0,72,0.00,,,0.00,Wunderground v.1.15,2013-09-15 07:10:00,
2013-09-15 00:15:00,64.3,55.1,30.00,SE,128,4.0,4.0,72,0.00,,,0.00,Wunderground v.1.15,2013-09-15 07:15:00,
2013-09-15 00:25:00,64.2,55.0,30.00,SSW,207,5.0,5.0,72,0.00,,,0.00,Wunderground v.1.15,2013-09-15 07:25:00,
2013-09-15 00:35:00,63.7,54.9,30.00,South,181,5.0,6.0,73,0.00,,,0.00,Wunderground v.1.15,2013-09-15 07:35:00,
2013-09-15 00:40:00,63.3,54.5,30.00,SSW,206,5.0,5.0,73,0.00,,,0.00,Wunderground v.1.15,2013-09-15 07:40:00,
2013-09-15 00:50:00,62.7,54.7,30.00,SSW,201,5.0,5.0,75,0.00,,,0.00,Wunderground v.1.15,2013-09-15 07:50:00,
2013-09-15 01:00:00,62.0,54.3,30.00,SSW,202,6.0,6.0,76,0.00,,,0.00,Wunderground v.1.15,2013-09-15 08:00:00,
2013-09-15 01:10:00,61.8,54.5,30.00,SSW,200,5.0,5.0,77,0.00,,,0.00,Wunderground v.1.15,2013-09-15 08:10:00,
2013-09-15 01:15:00,61.6,54.3,30.00,South,176,5.0,6.0,77,0.00,,,0.00,Wunderground v.1.15,2013-09-15 08:15:00,
2013-09-15 01:25:00,61.2,53.9,30.00,SSW,206,5.0,7.0,77,0.00,,,0.00,Wunderground v.1.15,2013-09-15 08:25:00,
2013-09-15 01:30:00,61.1,54.2,30.00,South,188,5.0,5.0,78,0.00,,,0.00,Wunderground v.1.15,2013-09-15 08:30:00,
2013-09-15 01:40:00,60.9,54.0,30.00,SSE,162,5.0,5.0,78,0.00,,,0.00,Wunderground v.1.15,2013-09-15 08:40:00,
2013-09-15 01:50:00,60.4,53.9,30.00,SW,215,4.0,4.0,79,0.00,,,0.00,Wunderground v.1.15,2013-09-15 08:50:00,
2013-09-15 01:55:00,60.2,53.7,30.00,SSW,197,4.0,5.0,79,0.00,,,0.00,Wunderground v.1.15,2013-09-15 08:55:00,
2013-09-15 02:00:00,60.1,53.9,30.00,SSW,203,4.0,6.0,80,0.00,,,0.00,Wunderground v.1.15,2013-09-15 09:00:00,
2013-09-15 02:05:00,59.9,53.7,30.00,SSE,151,5.0,8.0,80,0.00,,,0.00,Wunderground v.1.15,2013-09-15 09:05:00,
2013-09-15 02:15:00,59.7,53.9,30.00,SSW,197,6.0,7.0,81,0.00,,,0.00,Wunderground v.1.15,2013-09-15 09:15:00,
2013-09-15 02:25:00,59.5,53.7,30.01,SSW,193,5.0,6.0,81,0.00,,,0.00,Wunderground v.1.15,2013-09-15 09:25:00,
2013-09-15 02:35:00,59.2,53.4,30.01,SSW,193,5.0,6.0,81,0.00,,,0.00,Wunderground v.1.15,2013-09-15 09:35:00,
2013-09-15 02:45:00,58.6,53.1,30.01,South,185,4.0,5.0,82,0.00,,,0.00,Wunderground v.1.15,2013-09-15 09:45:00,
2013-09-15 02:55:00,58.5,53.4,30.00,SSE,160,4.0,5.0,83,0.00,,,0.00,Wunderground v.1.15,2013-09-15 09:55:00,
2013-09-15 03:00:00,58.4,53.3,30.00,SSW,200,4.0,4.0,83,0.00,,,0.00,Wunderground v.1.15,2013-09-15 10:00:00,
2013-09-15 03:10:00,58.5,53.4,30.01,South,179,5.0,5.0,83,0.00,,,0.00,Wunderground v.1.15,2013-09-15 10:10:00,
2013-09-15 03:20:00,59.0,53.2,30.01,SSW,200,5.0,5.0,81,0.00,,,0.00,Wunderground v.1.15,2013-09-15 10:20:00,
2013-09-15 03:30:00,58.5,53.4,30.01,SSW,212,6.0,8.0,83,0.00,,,0.00,Wunderground v.1.15,2013-09-15 10:30:00,
2013-09-15 03:35:00,58.2,53.1,30.02,SSW,198,6.0,8.0,83,0.00,,,0.00,Wunderground v.1.15,2013-09-15 10:35:00,
2013-09-15 03:45:00,57.6,52.8,30.02,South,172,6.0,6.0,84,0.00,,,0.00,Wunderground v.1.15,2013-09-15 10:45:00,
2013-09-15 03:55:00,57.0,52.5,30.02,South,185,6.0,7.0,85,0.00,,,0.00,Wunderground v.1.15,2013-09-15 10:55:00,
2013-09-15 04:00:00,56.5,52.4,30.02,SSE,156,5.0,5.0,86,0.00,,,0.00,Wunderground v.1.15,2013-09-15 11:00:00,
2013-09-15 04:10:00,55.8,52.0,30.02,South,177,5.0,5.0,87,0.00,,,0.00,Wunderground v.1.15,2013-09-15 11:10:00,
2013-09-15 04:20:00,55.7,51.9,30.02,SSW,205,3.0,3.0,87,0.00,,,0.00,Wunderground v.1.15,2013-09-15 11:20:00,
2013-09-15 04:30:00,55.6,51.5,30.02,SSW,198,3.0,3.0,86,0.00,,,0.00,Wunderground v.1.15,2013-09-15 11:30:00,
2013-09-15 04:40:00,55.4,51.6,30.02,ESE,114,3.0,3.0,87,0.00,,,0.00,Wunderground v.1.15,2013-09-15 11:40:00,
2013-09-15 04:50:00,55.0,51.2,30.02,SSW,207,2.0,2.0,87,0.00,,,0.00,Wunderground v.1.15,2013-09-15 11:50:00,
2013-09-15 05:00:00,54.8,51.3,30.02,South,176,1.0,2.0,88,0.00,,,0.00,Wunderground v.1.15,2013-09-15 12:00:00,
2013-09-15 05:10:00,54.6,51.1,30.03,SW,215,2.0,2.0,88,0.00,,,0.00,Wunderground v.1.15,2013-09-15 12:10:00,
2013-09-15 05:15:00,54.5,51.0,30.03,South,175,2.0,2.0,88,0.00,,,0.00,Wunderground v.1.15,2013-09-15 12:15:00,
2013-09-15 05:25:00,54.1,50.9,30.03,SSW,195,2.0,3.0,89,0.00,,,0.00,Wunderground v.1.15,2013-09-15 12:25:00,
2013-09-15 05:35:00,54.1,50.9,30.03,South,181,1.0,1.0,89,0.00,,,0.00,Wunderground v.1.15,2013-09-15 12:35:00,
2013-09-15 05:45:00,53.9,51.0,30.03,SSW,196,1.0,2.0,90,0.00,,,0.00,Wunderground v.1.15,2013-09-15 12:45:00,
2013-09-15 05:55:00,54.0,51.1,30.04,SSW,208,2.0,3.0,90,0.00,,,0.00,Wunderground v.1.15,2013-09-15 12:55:00,
2013-09-15 06:00:00,54.0,51.1,30.04,SE,145,3.0,3.0,90,0.00,,,0.00,Wunderground v.1.15,2013-09-15 13:00:00,
2013-09-15 06:10:00,53.8,50.9,30.04,SSW,197,3.0,4.0,90,0.00,,,0.00,Wunderground v.1.15,2013-09-15 13:10:00,
2013-09-15 06:20:00,54.0,51.4,30.04,SSW,199,4.0,4.0,91,0.00,,,0.00,Wunderground v.1.15,2013-09-15 13:20:00,
2013-09-15 06:30:00,54.2,51.3,30.05,SSW,205,4.0,4.0,90,0.00,,,0.00,Wunderground v.1.15,2013-09-15 13:30:00,
2013-09-15 06:40:00,54.5,51.6,30.05,South,180,4.0,4.0,90,0.00,,,0.00,Wunderground v.1.15,2013-09-15 13:40:00,
2013-09-15 06:45:00,54.5,51.6,30.04,SSW,205,4.0,4.0,90,0.00,,,0.00,Wunderground v.1.15,2013-09-15 13:45:00,
2013-09-15 06:55:00,54.3,51.4,30.05,SSW,211,4.0,4.0,90,0.00,,,0.00,Wunderground v.1.15,2013-09-15 13:55:00,
2013-09-15 07:00:00,54.1,51.2,30.05,SSW,198,4.0,4.0,90,0.00,,,0.00,Wunderground v.1.15,2013-09-15 14:00:00,
2013-09-15 07:10:00,54.3,51.4,30.06,SSW,208,5.0,5.0,90,0.00,,,0.00,Wunderground v.1.15,2013-09-15 14:10:00,
2013-09-15 07:20:00,54.9,51.4,30.06,South,183,4.0,6.0,88,0.00,,,0.00,Wunderground v.1.15,2013-09-15 14:20:00,
2013-09-15 07:30:00,55.5,51.7,30.06,South,176,4.0,4.0,87,0.00,,,0.00,Wunderground v.1.15,2013-09-15 14:30:00,
2013-09-15 07:35:00,55.7,51.6,30.06,South,184,4.0,6.0,86,0.00,,,0.00,Wunderground v.1.15,2013-09-15 14:35:00,
2013-09-15 07:45:00,55.8,51.7,30.06,SSW,211,4.0,4.0,86,0.00,,,0.00,Wunderground v.1.15,2013-09-15 14:45:00,
2013-09-15 07:55:00,56.2,51.4,30.07,South,190,4.0,4.0,84,0.00,,,0.00,Wunderground v.1.15,2013-09-15 14:55:00,
2013-09-15 08:00:00,56.4,51.6,30.07,SSW,206,3.0,3.0,84,0.00,,,0.00,Wunderground v.1.15,2013-09-15 15:00:00,
2013-09-15 08:10:00,57.2,51.8,30.07,SSW,193,2.0,5.0,82,0.00,,,0.00,Wunderground v.1.15,2013-09-15 15:10:00,
2013-09-15 08:20:00,57.8,51.7,30.07,SSW,207,3.0,4.0,80,0.00,,,0.00,Wunderground v.1.15,2013-09-15 15:20:00,
2013-09-15 08:30:00,58.4,51.9,30.07,South,187,4.0,5.0,79,0.00,,,0.00,Wunderground v.1.15,2013-09-15 15:30:00,
2013-09-15 08:40:00,59.4,52.9,30.07,SW,214,4.0,5.0,79,0.00,,,0.00,Wunderground v.1.15,2013-09-15 15:40:00,
2013-09-15 08:50:00,59.6,52.4,30.08,SSW,200,6.0,6.0,77,0.00,,,0.00,Wunderground v.1.15,2013-09-15 15:50:00,
2013-09-15 09:00:00,60.3,53.1,30.08,South,181,4.0,4.0,77,0.00,,,0.00,Wunderground v.1.15,2013-09-15 16:00:00,
2013-09-15 09:10:00,60.8,52.8,30.09,South,184,3.0,3.0,75,0.00,,,0.00,Wunderground v.1.15,2013-09-15 16:10:00,
2013-09-15 09:15:00,61.3,52.9,30.09,South,170,2.0,3.0,74,0.00,,,0.00,Wunderground v.1.15,2013-09-15 16:15:00,
2013-09-15 09:25:00,62.4,52.5,30.08,SSW,198,2.0,3.0,70,0.00,,,0.00,Wunderground v.1.15,2013-09-15 16:25:00,
2013-09-15 09:35:00,63.6,53.2,30.09,SSW,208,3.0,3.0,69,0.00,,,0.00,Wunderground v.1.15,2013-09-15 16:35:00,
2013-09-15 09:45:00,64.9,51.6,30.09,SSW,195,3.0,4.0,62,0.00,,,0.00,Wunderground v.1.15,2013-09-15 16:45:00,
2013-09-15 09:55:00,65.5,52.6,30.09,SSW,195,5.0,5.0,63,0.00,,,0.00,Wunderground v.1.15,2013-09-15 16:55:00,
2013-09-15 10:00:00,65.5,53.4,30.09,SSW,208,5.0,5.0,65,0.00,,,0.00,Wunderground v.1.15,2013-09-15 17:00:00,
2013-09-15 10:10:00,65.9,52.9,30.09,South,179,5.0,5.0,63,0.00,,,0.00,Wunderground v.1.15,2013-09-15 17:10:00,
2013-09-15 10:20:00,66.6,52.7,30.10,SSW,207,4.0,4.0,61,0.00,,,0.00,Wunderground v.1.15,2013-09-15 17:20:00,
2013-09-15 10:30:00,67.5,53.6,30.09,South,181,4.0,4.0,61,0.00,,,0.00,Wunderground v.1.15,2013-09-15 17:30:00,
2013-09-15 10:40:00,68.4,53.5,30.09,South,180,4.0,4.0,59,0.00,,,0.00,Wunderground v.1.15,2013-09-15 17:40:00,
2013-09-15 10:45:00,69.2,53.3,30.09,South,184,3.0,4.0,57,0.00,,,0.00,Wunderground v.1.15,2013-09-15 17:45:00,
2013-09-15 10:55:00,70.5,54.0,30.10,South,176,3.0,4.0,56,0.00,,,0.00,Wunderground v.1.15,2013-09-15 17:55:00,
2013-09-15 11:00:00,71.1,53.6,30.10,WSW,250,2.0,2.0,54,0.00,,,0.00,Wunderground v.1.15,2013-09-15 18:00:00,
2013-09-15 11:05:00,71.1,53.6,30.10,SW,224,2.0,2.0,54,0.00,,,0.00,Wunderground v.1.15,2013-09-15 18:05:00,
2013-09-15 11:15:00,72.1,54.5,30.10,SSW,211,2.0,3.0,54,0.00,,,0.00,Wunderground v.1.15,2013-09-15 18:15:00,
2013-09-15 11:25:00,73.7,52.8,30.10,SSW,197,2.0,4.0,48,0.00,,,0.00,Wunderground v.1.15,2013-09-15 18:25:00,
2013-09-15 11:35:00,74.4,53.4,30.09,SW,219,4.0,4.0,48,0.00,,,0.00,Wunderground v.1.15,2013-09-15 18:35:00,
2013-09-15 11:40:00,74.7,53.1,30.10,SSE,163,5.0,6.0,47,0.00,,,0.00,Wunderground v.1.15,2013-09-15 18:40:00,
2013-09-15 11:50:00,75.2,53.0,30.09,South,186,4.0,5.0,46,0.00,,,0.00,Wunderground v.1.15,2013-09-15 18:50:00,
2013-09-15 12:00:00,75.9,53.0,30.10,SSW,200,5.0,5.0,45,0.00,,,0.00,Wunderground v.1.15,2013-09-15 19:00:00,
2013-09-15 12:10:00,76.8,53.2,30.09,SSW,201,5.0,5.0,44,0.00,,,0.00,Wunderground v.1.15,2013-09-15 19:10:00,
2013-09-15 12:20:00,77.7,55.3,30.10,SSW,207,4.0,4.0,46,0.00,,,0.00,Wunderground v.1.15,2013-09-15 19:20:00,
2013-09-15 12:25:00,77.5,55.1,30.09,SSW,198,3.0,4.0,46,0.00,,,0.00,Wunderground v.1.15,2013-09-15 19:25:00,
2013-09-15 12:35:00,77.8,54.8,30.09,SSW,207,4.0,4.0,45,0.00,,,0.00,Wunderground v.1.15,2013-09-15 19:35:00,
2013-09-15 12:45:00,78.9,54.5,30.09,SSW,208,4.0,5.0,43,0.00,,,0.00,Wunderground v.1.15,2013-09-15 19:45:00,
2013-09-15 12:55:00,79.9,54.1,30.09,South,188,4.0,6.0,41,0.00,,,0.00,Wunderground v.1.15,2013-09-15 19:55:00,
2013-09-15 13:00:00,79.7,53.9,30.09,SSE,167,4.0,5.0,41,0.00,,,0.00,Wunderground v.1.15,2013-09-15 20:00:00,
2013-09-15 13:10:00,80.1,54.3,30.09,South,191,5.0,5.0,41,0.00,,,0.00,Wunderground v.1.15,2013-09-15 20:10:00,
2013-09-15 13:20:00,80.8,54.9,30.09,South,169,5.0,5.0,41,0.00,,,0.00,Wunderground v.1.15,2013-09-15 20:20:00,
2013-09-15 13:30:00,81.1,54.5,30.08,South,191,5.0,5.0,40,0.00,,,0.00,Wunderground v.1.15,2013-09-15 20:30:00,
2013-09-15 13:40:00,81.0,55.1,30.08,South,188,5.0,5.0,41,0.00,,,0.00,Wunderground v.1.15,2013-09-15 20:40:00,
2013-09-15 13:50:00,81.0,54.4,30.08,South,188,5.0,7.0,40,0.00,,,0.00,Wunderground v.1.15,2013-09-15 20:50:00,
2013-09-15 13:55:00,81.4,54.1,30.08,SW,228,5.0,7.0,39,0.00,,,0.00,Wunderground v.1.15,2013-09-15 20:55:00,
2013-09-15 14:00:00,82.1,54.7,30.08,South,174,6.0,6.0,39,0.00,,,0.00,Wunderground v.1.15,2013-09-15 21:00:00,
2013-09-15 14:05:00,82.1,54.0,30.08,SSW,193,6.0,6.0,38,0.00,,,0.00,Wunderground v.1.15,2013-09-15 21:05:00,
2013-09-15 14:15:00,82.5,55.0,30.08,SSW,200,5.0,5.0,39,0.00,,,0.00,Wunderground v.1.15,2013-09-15 21:15:00,
2013-09-15 14:25:00,82.3,53.4,30.07,SSW,193,5.0,7.0,37,0.00,,,0.00,Wunderground v.1.15,2013-09-15 21:25:00,
2013-09-15 14:30:00,82.4,53.5,30.07,SSW,204,6.0,6.0,37,0.00,,,0.00,Wunderground v.1.15,2013-09-15 21:30:00,
2013-09-15 14:40:00,82.9,54.0,30.07,SSW,200,5.0,5.0,37,0.00,,,0.00,Wunderground v.1.15,2013-09-15 21:40:00,
2013-09-15 14:50:00,83.1,54.9,30.06,South,187,5.0,6.0,38,0.00,,,0.00,Wunderground v.1.15,2013-09-15 21:50:00,
2013-09-15 15:00:00,83.6,53.1,30.06,South,191,5.0,5.0,35,0.00,,,0.00,Wunderground v.1.15,2013-09-15 22:00:00,
2013-09-15 15:10:00,84.0,51.0,30.06,South,174,5.0,5.0,32,0.00,,,0.00,Wunderground v.1.15,2013-09-15 22:10:00,
2013-09-15 15:15:00,83.8,49.9,30.06,SW,215,5.0,6.0,31,0.00,,,0.00,Wunderground v.1.15,2013-09-15 22:15:00,
2013-09-15 15:25:00,84.7,49.8,30.06,SW,228,6.0,6.0,30,0.00,,,0.00,Wunderground v.1.15,2013-09-15 22:25:00,
2013-09-15 15:35:00,84.7,49.8,30.06,South,183,5.0,6.0,30,0.00,,,0.00,Wunderground v.1.15,2013-09-15 22:35:00,
2013-09-15 15:45:00,84.8,49.9,30.05,SW,218,6.0,6.0,30,0.00,,,0.00,Wunderground v.1.15,2013-09-15 22:45:00,
2013-09-15 15:55:00,84.3,50.4,30.05,SW,221,6.0,7.0,31,0.00,,,0.00,Wunderground v.1.15,2013-09-15 22:55:00,
2013-09-15 16:00:00,84.9,50.9,30.05,SSW,210,6.0,6.0,31,0.00,,,0.00,Wunderground v.1.15,2013-09-15 23:00:00,
2013-09-15 16:10:00,84.3,52.1,30.05,SSE,167,6.0,6.0,33,0.00,,,0.00,Wunderground v.1.15,2013-09-15 23:10:00,
2013-09-15 16:20:00,83.6,53.1,30.05,SSW,212,6.0,6.0,35,0.00,,,0.00,Wunderground v.1.15,2013-09-15 23:20:00,
2013-09-15 16:30:00,83.7,53.1,30.05,SSW,204,7.0,7.0,35,0.00,,,0.00,Wunderground v.1.15,2013-09-15 23:30:00,
2013-09-15 16:40:00,82.8,54.6,30.04,SSW,198,7.0,7.0,38,0.00,,,0.00,Wunderground v.1.15,2013-09-15 23:40:00,
2013-09-15 16:45:00,83.2,55.7,30.04,SW,217,6.0,7.0,39,0.00,,,0.00,Wunderground v.1.15,2013-09-15 23:45:00,
2013-09-15 16:55:00,82.5,55.0,30.04,SSW,212,7.0,10.0,39,0.00,,,0.00,Wunderground v.1.15,2013-09-15 23:55:00,
2013-09-15 17:00:00,81.9,55.2,30.04,SSW,200,7.0,7.0,40,0.00,,,0.00,Wunderground v.1.15,2013-09-16 00:00:00,
2013-09-15 17:05:00,81.4,54.8,30.04,SSW,193,6.0,7.0,40,0.00,,,0.00,Wunderground v.1.15,2013-09-16 00:05:00,
2013-09-15 17:15:00,81.0,55.1,30.04,South,172,5.0,5.0,41,0.00,,,0.00,Wunderground v.1.15,2013-09-16 00:15:00,
2013-09-15 17:20:00,80.7,54.1,30.04,South,186,5.0,5.0,40,0.00,,,0.00,Wunderground v.1.15,2013-09-16 00:20:00,
2013-09-15 17:30:00,80.9,54.3,30.04,South,179,5.0,6.0,40,0.00,,,0.00,Wunderground v.1.15,2013-09-16 00:30:00,
2013-09-15 17:40:00,80.4,55.2,30.04,South,191,5.0,6.0,42,0.00,,,0.00,Wunderground v.1.15,2013-09-16 00:40:00,
2013-09-15 17:50:00,80.2,55.7,30.04,SW,221,6.0,8.0,43,0.00,,,0.00,Wunderground v.1.15,2013-09-16 00:50:00,
2013-09-15 18:00:00,79.8,55.9,30.04,SSW,199,5.0,5.0,44,0.00,,,0.00,Wunderground v.1.15,2013-09-16 01:00:00,
2013-09-15 18:10:00,79.3,56.7,30.04,South,184,4.0,4.0,46,0.00,,,0.00,Wunderground v.1.15,2013-09-16 01:10:00,
2013-09-15 18:15:00,78.7,56.2,30.05,SSW,194,5.0,7.0,46,0.00,,,0.00,Wunderground v.1.15,2013-09-16 01:15:00,
2013-09-15 18:25:00,78.3,57.0,30.05,SSW,200,4.0,5.0,48,0.00,,,0.00,Wunderground v.1.15,2013-09-16 01:25:00,
2013-09-15 18:35:00,77.4,56.7,30.05,SSW,202,5.0,5.0,49,0.00,,,0.00,Wunderground v.1.15,2013-09-16 01:35:00,
2013-09-15 18:45:00,76.7,56.7,30.05,SSW,203,5.0,5.0,50,0.00,,,0.00,Wunderground v.1.15,2013-09-16 01:45:00,
2013-09-15 18:50:00,76.5,57.6,30.05,South,179,4.0,4.0,52,0.00,,,0.00,Wunderground v.1.15,2013-09-16 01:50:00,
2013-09-15 19:00:00,75.3,57.0,30.06,SW,216,4.0,4.0,53,0.00,,,0.00,Wunderground v.1.15,2013-09-16 02:00:00,
2013-09-15 19:10:00,74.3,56.1,30.06,South,187,4.0,4.0,53,0.00,,,0.00,Wunderground v.1.15,2013-09-16 02:10:00,
2013-09-15 19:20:00,73.6,56.4,30.06,WSW,242,4.0,6.0,55,0.00,,,0.00,Wunderground v.1.15,2013-09-16 02:20:00,
2013-09-15 19:30:00,73.0,56.4,30.05,SSW,200,4.0,5.0,56,0.00,,,0.00,Wunderground v.1.15,2013-09-16 02:30:00,
2013-09-15 19:35:00,72.7,56.6,30.06,SSW,203,5.0,5.0,57,0.00,,,0.00,Wunderground v.1.15,2013-09-16 02:35:00,
2013-09-15 19:45:00,72.1,56.0,30.06,South,176,5.0,6.0,57,0.00,,,0.00,Wunderground v.1.15,2013-09-16 02:45:00,
2013-09-15 19:50:00,71.8,56.2,30.06,SSW,198,5.0,6.0,58,0.00,,,0.00,Wunderground v.1.15,2013-09-16 02:50:00,
2013-09-15 20:00:00,71.3,56.2,30.07,SSW,195,4.0,5.0,59,0.00,,,0.00,Wunderground v.1.15,2013-09-16 03:00:00,
2013-09-15 20:10:00,70.8,56.7,30.07,South,181,5.0,5.0,61,0.00,,,0.00,Wunderground v.1.15,2013-09-16 03:10:00,
2013-09-15 20:20:00,70.3,56.7,30.07,SSW,209,4.0,5.0,62,0.00,,,0.00,Wunderground v.1.15,2013-09-16 03:20:00,
2013-09-15 20:25:00,70.1,56.5,30.07,SSW,197,4.0,5.0,62,0.00,,,0.00,Wunderground v.1.15,2013-09-16 03:25:00,
2013-09-15 20:35:00,69.7,57.0,30.07,South,188,4.0,4.0,64,0.00,,,0.00,Wunderground v.1.15,2013-09-16 03:35:00,
2013-09-15 20:45:00,69.4,56.7,30.08,SSW,209,3.0,5.0,64,0.00,,,0.00,Wunderground v.1.15,2013-09-16 03:45:00,
2013-09-15 20:55:00,69.1,56.8,30.08,South,186,4.0,5.0,65,0.00,,,0.00,Wunderground v.1.15,2013-09-16 03:55:00,
2013-09-15 21:00:00,69.0,56.7,30.08,SSW,208,4.0,4.0,65,0.00,,,0.00,Wunderground v.1.15,2013-09-16 04:00:00,
2013-09-15 21:05:00,68.8,57.0,30.09,SSE,165,4.0,5.0,66,0.00,,,0.00,Wunderground v.1.15,2013-09-16 04:05:00,
2013-09-15 21:10:00,68.7,56.9,30.09,SSW,207,4.0,4.0,66,0.00,,,0.00,Wunderground v.1.15,2013-09-16 04:10:00,
2013-09-15 21:15:00,68.6,57.2,30.09,South,179,4.0,4.0,67,0.00,,,0.00,Wunderground v.1.15,2013-09-16 04:15:00,
2013-09-15 21:20:00,68.5,57.5,30.09,SSW,209,3.0,4.0,68,0.00,,,0.00,Wunderground v.1.15,2013-09-16 04:20:00,
2013-09-15 21:25:00,68.4,57.0,30.09,SSW,197,3.0,4.0,67,0.00,,,0.00,Wunderground v.1.15,2013-09-16 04:25:00,
2013-09-15 21:35:00,68.1,56.7,30.09,SSE,163,3.0,3.0,67,0.00,,,0.00,Wunderground v.1.15,2013-09-16 04:35:00,
2013-09-15 21:45:00,67.7,56.8,30.09,SSW,197,3.0,4.0,68,0.00,,,0.00,Wunderground v.1.15,2013-09-16 04:45:00,
2013-09-15 21:50:00,67.6,56.7,30.09,SSW,211,3.0,4.0,68,0.00,,,0.00,Wunderground v.1.15,2013-09-16 04:50:00,
2013-09-15 22:00:00,67.4,56.5,30.09,South,176,3.0,3.0,68,0.00,,,0.00,Wunderground v.1.15,2013-09-16 05:00:00,
2013-09-15 22:10:00,67.1,56.6,30.09,South,181,2.0,2.0,69,0.00,,,0.00,Wunderground v.1.15,2013-09-16 05:10:00,
2013-09-15 22:15:00,66.9,56.4,30.09,South,183,2.0,2.0,69,0.00,,,0.00,Wunderground v.1.15,2013-09-16 05:15:00,
2013-09-15 22:25:00,66.6,56.5,30.10,SSW,203,2.0,3.0,70,0.00,,,0.00,Wunderground v.1.15,2013-09-16 05:25:00,
2013-09-15 22:35:00,66.3,56.6,30.10,SSW,197,2.0,3.0,71,0.00,,,0.00,Wunderground v.1.15,2013-09-16 05:35:00,
2013-09-15 22:40:00,66.3,56.6,30.10,South,191,3.0,3.0,71,0.00,,,0.00,Wunderground v.1.15,2013-09-16 05:40:00,
2013-09-15 22:50:00,66.1,56.8,30.10,SSE,165,2.0,2.0,72,0.00,,,0.00,Wunderground v.1.15,2013-09-16 05:50:00,
2013-09-15 23:00:00,65.8,56.5,30.10,South,176,2.0,2.0,72,0.00,,,0.00,Wunderground v.1.15,2013-09-16 06:00:00,
2013-09-15 23:10:00,65.4,56.5,30.10,SSW,201,1.0,2.0,73,0.00,,,0.00,Wunderground v.1.15,2013-09-16 06:10:00,
2013-09-15 23:15:00,65.2,56.3,30.10,South,170,1.0,2.0,73,0.00,,,0.00,Wunderground v.1.15,2013-09-16 06:15:00,
2013-09-15 23:25:00,65.1,56.6,30.10,SSW,200,1.0,3.0,74,0.00,,,0.00,Wunderground v.1.15,2013-09-16 06:25:00,
2013-09-15 23:35:00,65.2,56.3,30.11,South,182,3.0,3.0,73,0.00,,,0.00,Wunderground v.1.15,2013-09-16 06:35:00,
2013-09-15 23:45:00,65.2,56.3,30.11,South,186,4.0,4.0,73,0.00,,,0.00,Wunderground v.1.15,2013-09-16 06:45:00,
2013-09-15 23:55:00,65.1,56.6,30.11,SSW,203,3.0,5.0,74,0.00,,,0.00,Wunderground v.1.15,2013-09-16 06:55:00,